Terminal Aerodrome Forecast
Issued by NWS Pocatello, ID

Home | Current Version | Previous Version | Text Only | Print | Product List | Glossary On
Versions: 1 2 3 4 5 6 7 8 9 10 11 12 13
000
FTUS45 KPIH 021720
TAFIDA
TAF
KIDA 021720Z 0218/0318 22012KT P6SM FEW150
     FM021900 23018G30KT P6SM FEW150
     FM030200 19010KT P6SM VCSH SCT070 BKN100
     FM031200 21009KT P6SM SCT100=

USA.gov is the U.S. government's official web portal to all federal, state and local government web resources and services.